createdAt,value
2023-04-30T00:00:18.914Z,11.67
2023-04-30T00:02:46.918Z,11.59
2023-04-30T00:05:14.922Z,11.72
2023-04-30T00:07:44.342Z,11.74
2023-04-30T00:10:12.300Z,11.96
2023-04-30T00:12:40.262Z,11.80
2023-04-30T00:15:08.907Z,11.65
2023-04-30T00:17:37.011Z,11.46
2023-04-30T00:20:05.766Z,11.83
2023-04-30T00:22:34.415Z,11.53
2023-04-30T00:25:03.672Z,11.79
2023-04-30T00:27:32.352Z,11.77
2023-04-30T00:30:00.276Z,11.62
2023-04-30T00:32:28.173Z,11.88
2023-04-30T00:34:56.309Z,11.87
2023-04-30T00:37:24.157Z,11.90
2023-04-30T00:39:52.457Z,11.34
2023-04-30T00:42:22.211Z,11.51
2023-04-30T00:44:50.112Z,11.73
2023-04-30T00:47:18.042Z,11.20
2023-04-30T00:49:46.230Z,11.42
2023-04-30T00:52:14.514Z,11.25
2023-04-30T00:54:43.003Z,11.22
2023-04-30T00:57:13.834Z,11.28
2023-04-30T00:59:43.256Z,11.07
2023-04-30T01:02:11.405Z,11.02
2023-04-30T01:04:39.751Z,11.05
2023-04-30T01:07:08.096Z,10.93
2023-04-30T01:09:36.441Z,10.90
2023-04-30T01:12:14.873Z,11.02
2023-04-30T01:14:58.190Z,10.80
2023-04-30T01:17:33.363Z,11.10
2023-04-30T01:20:02.941Z,10.97
2023-04-30T01:22:42.188Z,11.18
2023-04-30T01:25:26.621Z,10.75
2023-04-30T01:28:06.619Z,10.48
2023-04-30T01:30:36.470Z,10.47
2023-04-30T01:33:04.797Z,10.65
2023-04-30T01:35:59.188Z,10.56
2023-04-30T01:38:40.650Z,10.31
2023-04-30T01:41:19.702Z,10.33
2023-04-30T01:43:57.079Z,10.40
2023-04-30T01:46:29.232Z,10.51
2023-04-30T01:49:10.894Z,10.53
2023-04-30T01:51:42.687Z,10.69
2023-04-30T01:54:18.151Z,10.58
2023-04-30T01:56:54.445Z,10.42
2023-04-30T01:59:24.731Z,10.55
2023-04-30T02:01:52.791Z,10.36
2023-04-30T02:04:20.859Z,10.52
2023-04-30T02:06:48.777Z,10.19
2023-04-30T02:09:16.646Z,10.28
2023-04-30T02:11:44.510Z,10.22
2023-04-30T02:14:12.432Z,10.30
2023-04-30T02:16:42.006Z,10.36
2023-04-30T02:19:10.161Z,10.23
2023-04-30T02:21:39.655Z,10.19
2023-04-30T02:24:08.132Z,10.40
2023-04-30T02:26:36.020Z,10.26
2023-04-30T02:29:03.900Z,10.27
2023-04-30T02:31:31.810Z,10.22
2023-04-30T02:34:01.060Z,10.14
2023-04-30T02:36:29.120Z,10.17
2023-04-30T02:38:56.971Z,10.14
2023-04-30T02:41:24.802Z,10.23
2023-04-30T02:43:52.851Z,10.10
2023-04-30T02:46:20.983Z,10.21
2023-04-30T02:48:48.854Z,9.94
2023-04-30T02:51:18.147Z,10.06
2023-04-30T02:53:46.024Z,10.10
2023-04-30T02:56:13.936Z,10.02
2023-04-30T02:58:42.019Z,9.99
2023-04-30T03:01:09.984Z,10.02
2023-04-30T03:03:37.956Z,9.99
2023-04-30T03:06:06.636Z,10.02
2023-04-30T03:08:35.956Z,10.12
2023-04-30T03:11:03.872Z,10.02
2023-04-30T03:13:31.767Z,9.98
2023-04-30T03:16:00.460Z,9.64
2023-04-30T03:18:29.131Z,9.67
2023-04-30T03:20:57.268Z,9.73
2023-04-30T03:23:25.412Z,9.62
2023-04-30T03:25:54.935Z,9.73
2023-04-30T03:28:23.262Z,9.49
2023-04-30T03:30:51.390Z,9.57
2023-04-30T03:33:19.290Z,9.46
2023-04-30T03:35:47.534Z,9.48
2023-04-30T03:38:15.443Z,9.36
2023-04-30T03:40:43.376Z,9.50
2023-04-30T03:43:13.283Z,9.46
2023-04-30T03:45:41.137Z,9.37
2023-04-30T03:48:09.027Z,9.18
2023-04-30T03:50:36.928Z,9.25
2023-04-30T03:53:04.840Z,9.39
2023-04-30T03:55:34.247Z,9.37
2023-04-30T03:58:02.412Z,9.28
2023-04-30T04:00:32.186Z,9.30
2023-04-30T04:03:00.764Z,9.48
2023-04-30T04:05:29.851Z,9.35
2023-04-30T04:07:57.758Z,9.43
2023-04-30T04:10:25.734Z,9.09
2023-04-30T04:12:53.612Z,9.11
2023-04-30T04:15:21.674Z,9.16
2023-04-30T04:17:52.338Z,9.10
2023-04-30T04:20:20.417Z,9.24
2023-04-30T04:22:48.299Z,9.13
2023-04-30T04:25:18.131Z,9.14
2023-04-30T04:27:46.252Z,9.14
2023-04-30T04:30:14.797Z,9.23
2023-04-30T04:32:48.065Z,9.21
2023-04-30T04:35:17.623Z,9.22
2023-04-30T04:37:46.044Z,9.15
2023-04-30T04:40:14.267Z,9.16
2023-04-30T04:42:42.265Z,8.90
2023-04-30T04:45:11.200Z,9.16
2023-04-30T04:47:40.018Z,9.14
2023-04-30T04:50:09.013Z,9.33
2023-04-30T04:52:39.096Z,9.25
2023-04-30T04:55:07.895Z,9.03
2023-04-30T04:57:37.367Z,9.08
2023-04-30T05:00:08.035Z,9.03
2023-04-30T05:02:36.196Z,9.25
2023-04-30T05:05:04.254Z,9.23
2023-04-30T05:07:32.131Z,9.24
2023-04-30T05:10:01.617Z,9.12
2023-04-30T05:12:29.459Z,9.20
2023-04-30T05:14:57.343Z,9.20
2023-04-30T05:17:25.325Z,9.41
2023-04-30T05:19:54.312Z,9.15
2023-04-30T05:22:22.519Z,9.22
2023-04-30T05:24:52.985Z,9.11
2023-04-30T05:27:22.312Z,9.33
2023-04-30T05:29:50.186Z,9.81
2023-04-30T05:32:18.136Z,10.38
2023-04-30T05:34:45.994Z,11.14
2023-04-30T05:37:14.542Z,12.35
2023-04-30T05:39:42.484Z,13.53
2023-04-30T05:42:10.333Z,12.51
2023-04-30T05:44:39.579Z,12.64
2023-04-30T05:47:07.551Z,12.06
2023-04-30T05:49:36.263Z,12.30
2023-04-30T05:52:04.647Z,12.05
2023-04-30T05:54:33.125Z,12.21
2023-04-30T05:57:01.062Z,11.97
2023-04-30T05:59:28.938Z,11.56
2023-04-30T06:01:58.256Z,11.79
2023-04-30T06:04:26.230Z,12.18
2023-04-30T06:06:54.105Z,12.02
2023-04-30T06:09:21.976Z,12.03
2023-04-30T06:11:50.534Z,12.16
2023-04-30T06:14:18.516Z,11.89
2023-04-30T06:16:47.039Z,11.92
2023-04-30T06:19:16.303Z,11.74
2023-04-30T06:21:44.273Z,11.86
2023-04-30T06:24:12.168Z,11.68
2023-04-30T06:26:40.057Z,11.66
2023-04-30T06:29:07.915Z,11.77
2023-04-30T06:31:35.812Z,11.35
2023-04-30T06:34:03.749Z,11.55
2023-04-30T06:36:32.998Z,11.62
2023-04-30T06:39:01.046Z,11.39
2023-04-30T06:41:29.002Z,11.68
2023-04-30T06:43:56.906Z,11.74
2023-04-30T06:46:24.855Z,11.67
2023-04-30T06:48:52.818Z,11.67
2023-04-30T06:51:20.939Z,11.47
2023-04-30T06:53:50.135Z,12.38
2023-04-30T06:56:18.059Z,13.09
2023-04-30T06:58:46.509Z,12.39
2023-04-30T07:01:14.392Z,12.63
2023-04-30T07:03:42.715Z,12.54
2023-04-30T07:06:10.990Z,12.43
2023-04-30T07:08:41.110Z,12.55
2023-04-30T07:11:10.448Z,12.49
2023-04-30T07:13:38.501Z,12.54
2023-04-30T07:16:09.097Z,13.25
2023-04-30T07:18:37.844Z,12.72
2023-04-30T07:21:05.842Z,12.14
2023-04-30T07:23:33.694Z,12.27
2023-04-30T07:26:01.679Z,12.36
2023-04-30T07:28:30.892Z,12.68
2023-04-30T07:30:58.837Z,13.29
2023-04-30T07:33:26.867Z,12.92
2023-04-30T07:35:56.630Z,12.85
2023-04-30T07:38:24.575Z,12.68
2023-04-30T07:40:52.448Z,12.66
2023-04-30T07:43:20.549Z,12.93
2023-04-30T07:45:50.829Z,12.76
2023-04-30T07:48:18.709Z,12.86
2023-04-30T07:50:50.569Z,12.12
2023-04-30T07:53:19.287Z,12.60
2023-04-30T07:55:47.646Z,12.70
2023-04-30T07:58:15.560Z,12.89
2023-04-30T08:00:43.475Z,13.06
2023-04-30T08:03:13.287Z,12.88
2023-04-30T08:05:41.638Z,12.89
2023-04-30T08:08:09.859Z,13.09
2023-04-30T08:10:37.773Z,12.52
2023-04-30T08:13:05.843Z,12.83
2023-04-30T08:15:35.169Z,12.99
2023-04-30T08:18:03.892Z,13.13
2023-04-30T08:20:33.244Z,13.29
2023-04-30T08:23:01.324Z,12.97
2023-04-30T08:25:29.200Z,13.17
2023-04-30T08:27:57.118Z,13.14
2023-04-30T08:30:25.788Z,13.61
2023-04-30T08:32:55.369Z,14.38
2023-04-30T08:35:25.508Z,14.14
2023-04-30T08:37:54.783Z,13.49
2023-04-30T08:40:29.047Z,13.73
2023-04-30T08:43:08.381Z,13.70
2023-04-30T08:45:37.155Z,14.10
2023-04-30T08:48:06.137Z,13.83
2023-04-30T08:50:35.092Z,13.91
2023-04-30T08:53:04.418Z,13.84
2023-04-30T08:55:35.590Z,14.06
2023-04-30T08:58:05.485Z,14.19
2023-04-30T09:00:33.903Z,14.31
2023-04-30T09:03:02.697Z,14.41
2023-04-30T09:05:31.066Z,15.27
2023-04-30T09:08:03.660Z,15.52
2023-04-30T09:10:35.038Z,15.68
2023-04-30T09:13:04.484Z,16.41
2023-04-30T09:15:34.161Z,16.00
2023-04-30T09:18:14.460Z,16.43
2023-04-30T09:20:56.522Z,16.68
2023-04-30T09:23:25.589Z,16.84
2023-04-30T09:25:54.945Z,16.68
2023-04-30T09:28:25.519Z,17.79
2023-04-30T09:30:54.013Z,18.00
2023-04-30T09:33:21.906Z,18.08
2023-04-30T09:35:49.968Z,17.87
2023-04-30T09:38:35.754Z,18.67
2023-04-30T09:41:05.222Z,18.53
2023-04-30T09:43:33.504Z,18.14
2023-04-30T09:46:01.447Z,18.44
2023-04-30T09:48:29.616Z,18.54
2023-04-30T09:50:57.830Z,18.84
2023-04-30T09:53:25.916Z,19.25
2023-04-30T09:55:54.551Z,19.08
2023-04-30T09:58:29.045Z,18.40
2023-04-30T10:01:00.248Z,18.86
2023-04-30T10:03:28.945Z,19.55
2023-04-30T10:05:57.063Z,19.30
2023-04-30T10:08:29.069Z,19.92
2023-04-30T10:11:01.123Z,19.22
2023-04-30T10:13:33.531Z,19.22
2023-04-30T10:16:08.822Z,20.10
2023-04-30T10:18:40.694Z,20.50
2023-04-30T10:21:14.191Z,20.47
2023-04-30T10:23:43.759Z,19.99
2023-04-30T10:26:12.412Z,20.00
2023-04-30T10:28:41.970Z,20.94
2023-04-30T10:31:11.519Z,20.09
2023-04-30T10:33:50.706Z,20.75
2023-04-30T10:36:27.207Z,20.95
2023-04-30T10:38:55.720Z,20.77
2023-04-30T10:41:23.599Z,20.74
2023-04-30T10:43:56.072Z,20.94
2023-04-30T10:46:24.807Z,20.46
2023-04-30T10:48:54.921Z,19.45
2023-04-30T10:51:23.296Z,20.22
2023-04-30T10:53:52.954Z,20.51
2023-04-30T10:56:34.749Z,20.39
2023-04-30T10:59:04.005Z,20.62
2023-04-30T11:01:32.638Z,20.97
2023-04-30T11:04:08.184Z,20.57
2023-04-30T11:06:57.124Z,21.16
2023-04-30T11:09:38.282Z,20.76
2023-04-30T11:12:12.309Z,20.89
2023-04-30T11:14:45.980Z,20.54
2023-04-30T11:17:15.658Z,20.74
2023-04-30T11:19:48.300Z,20.31
2023-04-30T11:22:25.707Z,20.56
2023-04-30T11:24:55.869Z,20.00
2023-04-30T11:27:25.739Z,20.61
2023-04-30T11:29:56.262Z,19.76
2023-04-30T11:32:26.895Z,20.18
2023-04-30T11:34:56.023Z,20.21
2023-04-30T11:37:32.563Z,20.09
2023-04-30T11:40:03.664Z,20.30
2023-04-30T11:42:34.714Z,20.11
2023-04-30T11:45:09.406Z,20.63
2023-04-30T11:47:42.007Z,20.05
2023-04-30T11:50:11.844Z,20.49
2023-04-30T11:52:40.525Z,20.12
2023-04-30T11:55:13.770Z,20.22
2023-04-30T11:57:41.939Z,20.67
2023-04-30T12:00:14.685Z,20.27
2023-04-30T12:02:44.676Z,19.87
2023-04-30T12:05:17.409Z,20.44
2023-04-30T12:07:49.538Z,19.98
2023-04-30T12:10:19.759Z,21.02
2023-04-30T12:12:49.296Z,20.64
2023-04-30T12:15:23.242Z,21.07
2023-04-30T12:17:51.192Z,20.48
2023-04-30T12:20:19.261Z,19.86
2023-04-30T12:22:47.392Z,19.28
2023-04-30T12:25:17.784Z,19.80
2023-04-30T12:27:48.365Z,20.35
2023-04-30T12:30:16.916Z,20.44
2023-04-30T12:32:47.245Z,20.16
2023-04-30T12:35:16.889Z,20.15
2023-04-30T12:37:46.031Z,20.07
2023-04-30T12:40:15.480Z,19.95
2023-04-30T12:42:44.084Z,20.47
2023-04-30T12:45:12.779Z,19.95
2023-04-30T12:47:41.962Z,20.42
2023-04-30T12:50:13.403Z,19.78
2023-04-30T12:52:42.806Z,20.68
2023-04-30T12:55:19.583Z,20.59
2023-04-30T12:58:06.267Z,19.91
2023-04-30T13:00:48.652Z,19.91
2023-04-30T13:03:17.950Z,19.39
2023-04-30T13:05:50.940Z,19.87
2023-04-30T13:08:20.676Z,19.93
2023-04-30T13:10:49.512Z,19.32
2023-04-30T13:13:20.259Z,19.90
2023-04-30T13:15:48.549Z,20.02
2023-04-30T13:18:16.622Z,18.89
2023-04-30T13:20:45.530Z,20.00
2023-04-30T13:23:15.091Z,19.64
2023-04-30T13:25:43.642Z,19.88
2023-04-30T13:28:11.553Z,19.91
2023-04-30T13:30:40.417Z,19.74
2023-04-30T13:33:08.331Z,19.98
2023-04-30T13:35:36.293Z,19.60
2023-04-30T13:38:04.166Z,19.66
2023-04-30T13:40:33.525Z,19.61
2023-04-30T13:43:01.374Z,19.47
2023-04-30T13:45:30.225Z,19.37
2023-04-30T13:47:58.213Z,19.43
2023-04-30T13:50:26.365Z,19.21
2023-04-30T13:52:54.264Z,19.38
2023-04-30T13:55:22.232Z,19.50
2023-04-30T13:57:51.504Z,19.76
2023-04-30T14:00:19.681Z,19.60
2023-04-30T14:02:47.584Z,19.64
2023-04-30T14:05:15.752Z,19.76
2023-04-30T14:07:44.469Z,19.84
2023-04-30T14:10:12.851Z,19.38
2023-04-30T14:12:40.672Z,19.62
2023-04-30T14:15:10.634Z,19.87
2023-04-30T14:17:38.633Z,19.62
2023-04-30T14:20:08.085Z,19.54
2023-04-30T14:22:38.583Z,19.81
2023-04-30T14:25:07.554Z,19.26
2023-04-30T14:27:35.388Z,19.66
2023-04-30T14:30:04.076Z,19.74
2023-04-30T14:32:33.392Z,19.65
2023-04-30T14:35:01.316Z,19.42
2023-04-30T14:37:29.549Z,19.26
2023-04-30T14:39:58.757Z,19.54
2023-04-30T14:42:26.883Z,19.67
2023-04-30T14:44:54.760Z,19.61
2023-04-30T14:47:22.835Z,19.39
2023-04-30T14:49:53.636Z,19.90
2023-04-30T14:52:22.389Z,19.74
2023-04-30T14:54:50.266Z,19.40
2023-04-30T14:57:18.751Z,19.12
2023-04-30T14:59:46.701Z,19.41
2023-04-30T15:02:14.800Z,19.21
2023-04-30T15:04:46.077Z,19.38
2023-04-30T15:07:15.429Z,18.88
2023-04-30T15:09:44.727Z,18.82
2023-04-30T15:12:12.633Z,19.15
2023-04-30T15:14:41.317Z,19.55
2023-04-30T15:17:09.469Z,19.37
2023-04-30T15:19:37.403Z,19.50
2023-04-30T15:22:05.311Z,19.24
2023-04-30T15:24:34.577Z,18.97
2023-04-30T15:27:04.253Z,19.26
2023-04-30T15:29:32.217Z,19.51
2023-04-30T15:32:00.479Z,18.83
2023-04-30T15:34:28.398Z,19.11
2023-04-30T15:36:58.871Z,19.51
2023-04-30T15:39:26.946Z,19.10
2023-04-30T15:41:56.436Z,19.21
2023-04-30T15:44:24.454Z,19.25
2023-04-30T15:46:52.588Z,19.29
2023-04-30T15:49:21.215Z,19.27
2023-04-30T15:51:49.066Z,19.09
2023-04-30T15:54:17.963Z,18.87
2023-04-30T15:56:45.976Z,19.06
2023-04-30T15:59:17.750Z,19.16
2023-04-30T16:01:47.496Z,19.13
2023-04-30T16:04:15.618Z,19.37
2023-04-30T16:06:43.676Z,19.06
2023-04-30T16:09:12.427Z,19.18
2023-04-30T16:11:40.634Z,19.20
2023-04-30T16:14:08.586Z,18.81
2023-04-30T16:16:37.911Z,18.77
2023-04-30T16:19:07.636Z,18.80
2023-04-30T16:21:38.397Z,18.84
2023-04-30T16:24:06.528Z,18.32
2023-04-30T16:26:35.172Z,17.77
2023-04-30T16:29:04.276Z,18.34
2023-04-30T16:31:32.312Z,18.56
2023-04-30T16:34:01.586Z,18.66
2023-04-30T16:36:29.447Z,18.70
2023-04-30T16:38:57.292Z,18.43
2023-04-30T16:41:25.870Z,18.60
2023-04-30T16:43:53.721Z,18.60
2023-04-30T16:46:21.636Z,18.36
2023-04-30T16:48:49.825Z,18.34
2023-04-30T16:51:19.072Z,18.34
2023-04-30T16:53:46.980Z,18.15
2023-04-30T16:56:15.013Z,18.40
2023-04-30T16:58:42.960Z,18.39
2023-04-30T17:01:10.964Z,18.33
2023-04-30T17:03:38.963Z,18.47
2023-04-30T17:06:07.269Z,18.03
2023-04-30T17:08:37.298Z,18.29
2023-04-30T17:11:06.320Z,18.15
2023-04-30T17:13:34.246Z,18.05
2023-04-30T17:16:02.391Z,18.01
2023-04-30T17:18:30.373Z,18.01
2023-04-30T17:20:58.293Z,18.09
2023-04-30T17:23:26.519Z,18.02
2023-04-30T17:25:56.070Z,17.90
2023-04-30T17:28:23.962Z,17.90
2023-04-30T17:30:52.537Z,17.87
2023-04-30T17:33:20.443Z,17.58
2023-04-30T17:35:48.309Z,17.87
2023-04-30T17:38:16.214Z,17.76
2023-04-30T17:40:44.473Z,17.47
2023-04-30T17:43:13.915Z,17.70
2023-04-30T17:45:41.858Z,17.41
2023-04-30T17:48:09.738Z,17.37
2023-04-30T17:50:37.717Z,17.51
2023-04-30T17:53:05.627Z,17.40
2023-04-30T17:55:33.595Z,17.53
2023-04-30T17:58:01.676Z,17.24
2023-04-30T18:00:31.692Z,17.17
2023-04-30T18:02:59.666Z,16.96
2023-04-30T18:05:27.774Z,17.02
2023-04-30T18:07:55.670Z,16.71
2023-04-30T18:10:23.543Z,16.90
2023-04-30T18:12:51.644Z,17.07
2023-04-30T18:15:19.572Z,16.89
2023-04-30T18:17:48.813Z,16.81
2023-04-30T18:20:16.832Z,16.92
2023-04-30T18:22:44.790Z,16.77
2023-04-30T18:25:14.098Z,16.87
2023-04-30T18:27:42.029Z,16.82
2023-04-30T18:30:11.531Z,16.64
2023-04-30T18:32:39.952Z,16.67
2023-04-30T18:35:10.082Z,16.61
2023-04-30T18:37:37.956Z,16.63
2023-04-30T18:40:06.935Z,16.55
2023-04-30T18:42:34.795Z,16.48
2023-04-30T18:45:02.971Z,16.48
2023-04-30T18:47:32.988Z,16.32
2023-04-30T18:50:00.932Z,16.33
2023-04-30T18:52:30.160Z,16.23
2023-04-30T18:54:58.037Z,16.17
2023-04-30T18:57:25.966Z,16.15
2023-04-30T18:59:54.792Z,16.11
2023-04-30T19:02:22.969Z,16.05
2023-04-30T19:04:51.230Z,15.96
2023-04-30T19:07:19.220Z,15.98
2023-04-30T19:09:50.595Z,15.94
2023-04-30T19:12:18.501Z,15.89
2023-04-30T19:14:47.223Z,15.77
2023-04-30T19:17:15.260Z,15.76
2023-04-30T19:19:44.213Z,15.61
2023-04-30T19:22:12.389Z,15.57
2023-04-30T19:24:40.282Z,15.56
2023-04-30T19:27:10.918Z,15.44
2023-04-30T19:29:39.483Z,15.28
2023-04-30T19:32:07.813Z,15.29
2023-04-30T19:34:35.911Z,15.27
2023-04-30T19:37:04.056Z,15.31
2023-04-30T19:39:33.945Z,15.24
2023-04-30T19:42:01.821Z,15.15
2023-04-30T19:44:31.074Z,15.08
2023-04-30T19:46:59.100Z,15.06
2023-04-30T19:49:27.183Z,15.05
2023-04-30T19:51:55.537Z,15.04
2023-04-30T19:54:23.480Z,15.03
2023-04-30T19:56:52.735Z,15.00
2023-04-30T19:59:20.862Z,14.98
2023-04-30T20:01:52.529Z,14.88
2023-04-30T20:04:20.494Z,14.39
2023-04-30T20:06:51.794Z,14.42
2023-04-30T20:09:19.816Z,14.46
2023-04-30T20:11:49.752Z,14.55
2023-04-30T20:14:17.607Z,14.50
2023-04-30T20:16:46.021Z,14.57
2023-04-30T20:19:15.531Z,14.55
2023-04-30T20:21:43.731Z,14.17
2023-04-30T20:24:11.832Z,14.34
2023-04-30T20:26:40.298Z,14.33
2023-04-30T20:29:08.137Z,14.59
2023-04-30T20:31:36.994Z,14.23
2023-04-30T20:34:04.985Z,14.17
2023-04-30T20:36:34.377Z,14.54
2023-04-30T20:39:02.314Z,14.58
2023-04-30T20:41:30.407Z,14.69
2023-04-30T20:43:59.986Z,14.66
2023-04-30T20:46:28.415Z,14.57
2023-04-30T20:49:02.505Z,14.38
2023-04-30T20:51:30.503Z,14.42
2023-04-30T20:53:59.821Z,14.49
2023-04-30T20:56:27.708Z,14.51
2023-04-30T20:58:55.874Z,14.52
2023-04-30T21:01:23.889Z,14.34
2023-04-30T21:03:51.788Z,14.39
2023-04-30T21:06:19.897Z,14.27
2023-04-30T21:08:48.688Z,14.24
2023-04-30T21:11:19.023Z,14.26
2023-04-30T21:16:15.065Z,14.07
2023-04-30T21:18:44.360Z,14.00
2023-04-30T21:21:12.202Z,13.84
2023-04-30T21:23:40.098Z,13.99
2023-04-30T21:26:08.193Z,14.01
2023-04-30T21:28:37.435Z,14.06
2023-04-30T21:31:06.671Z,13.93
2023-04-30T21:33:34.710Z,13.92
2023-04-30T21:36:03.004Z,13.88
2023-04-30T21:38:31.442Z,13.72
2023-04-30T21:40:59.402Z,13.83
2023-04-30T21:43:27.452Z,13.79
2023-04-30T21:46:02.475Z,13.74
2023-04-30T21:48:30.376Z,13.63
2023-04-30T21:50:58.235Z,13.60
2023-04-30T21:53:26.127Z,13.53
2023-04-30T21:55:54.150Z,13.52
2023-04-30T21:58:21.971Z,13.45
2023-04-30T22:00:49.827Z,13.41
2023-04-30T22:03:19.168Z,13.48
2023-04-30T22:05:47.418Z,13.44
2023-04-30T22:08:15.469Z,13.81
2023-04-30T22:10:43.335Z,13.57
2023-04-30T22:13:11.196Z,13.33
2023-04-30T22:15:47.867Z,13.55
2023-04-30T22:18:17.152Z,13.47
2023-04-30T22:20:46.488Z,13.21
2023-04-30T22:23:14.334Z,13.50
2023-04-30T22:25:42.261Z,13.61
2023-04-30T22:28:11.114Z,13.46
2023-04-30T22:30:39.491Z,13.58
2023-04-30T22:33:07.747Z,13.16
2023-04-30T22:35:38.168Z,13.08
2023-04-30T22:38:07.509Z,13.35
2023-04-30T22:40:39.088Z,13.26
2023-04-30T22:43:07.502Z,13.51
2023-04-30T22:45:38.336Z,13.33
2023-04-30T22:48:07.163Z,13.25
2023-04-30T22:50:35.465Z,13.34
2023-04-30T22:53:03.417Z,13.40
2023-04-30T22:55:32.995Z,13.34
2023-04-30T22:58:01.706Z,13.21
2023-04-30T23:00:30.020Z,13.22
2023-04-30T23:02:57.925Z,13.19
2023-04-30T23:05:26.297Z,13.13
2023-04-30T23:07:54.161Z,13.15
2023-04-30T23:10:22.010Z,13.13
2023-04-30T23:12:51.771Z,13.02
2023-04-30T23:15:19.753Z,12.95
2023-04-30T23:17:47.802Z,12.89
2023-04-30T23:20:15.803Z,12.80
2023-04-30T23:22:43.701Z,12.96
2023-04-30T23:25:11.767Z,12.77
2023-04-30T23:27:39.636Z,12.91
2023-04-30T23:30:11.408Z,12.97
2023-04-30T23:32:39.378Z,12.90
2023-04-30T23:35:08.917Z,12.92
2023-04-30T23:37:37.176Z,12.83
2023-04-30T23:40:07.449Z,12.72
2023-04-30T23:42:35.632Z,12.68
2023-04-30T23:45:03.791Z,12.73
2023-04-30T23:47:36.383Z,12.72
2023-04-30T23:50:04.577Z,12.65
2023-04-30T23:52:33.140Z,12.51
2023-04-30T23:55:01.027Z,12.59
2023-04-30T23:57:28.836Z,12.44
2023-04-30T23:59:57.030Z,12.44
